Archival Weather

Chicago O'Hare International

Chicago, Illinois (KORD)

Report from: Sunday, March 6, 2022 2:51 AM CST
Current time: Saturday, February 4, 2023 10:19 PM CST

Current weather
Weather history
Weather forecast

Temperature10.6°C (51.1°F)
Dew point5.6°C (42.1°F)
Winds 20 kts (10.3 m/s, 23 mph) West-Southwest (250°)
Wind gusts 40 kts (20.6 m/s, 46 mph)
Peak wind 43 kts (22.1 m/s, 49.5 mph) West-Southwest (250°) at 02:41
Visibility10 mi. (16.1 km)
Clouds Ceiling: Broken clouds 2,500 ft. (762 m)
Altimeter29.64 in.Hg (1004 mB)
Precip last 3 hours0.01 in. (0 mm)
Relative humidity71 %
Density altitude-69 ft. (-21 m)
Sea-level pressure100.4 kPa (1004 mB, 29.64 in.Hg)
Remarks System requires maintenance
Automated weather observing station with precipitation discriminator
Pressure rising rapidly
Pressure falling, then rising
Flight conditions Marginal Visual Meteorological Conditions
Raw dataKORD 060851Z 25020G40KT 10SM BKN025 11/06 A2964 RMK AO2 PK WND 25043/0841 PRESRR SLP037 60001 T01060056 55001 $
An unhandled exception has occurred. See browser dev tools for details. Reload 🗙